Time;durP1;ratioP1;P1;durP2;ratioP2;P2;SDS_P1;SDS_P2;PMS_P1;PMS_P2;Temp;Humidity;BMP_temperature;BMP_pressure;BME280_temperature;BME280_humidity;BME280_pressure;Samples;Min_cycle;Max_cycle;Signal;HPM_P1;HPM_P2
2021/01/24 00:00:11;;;;;;;;;;;2.70;99.90;;;;;;5055136;28;20433;-82
2021/01/24 00:02:37;;;;;;;;;;;2.70;99.90;;;;;;5062542;28;19923;-82
2021/01/24 00:05:05;;;;;;;;;;;2.70;99.90;;;;;;5064384;28;20011;-80
2021/01/24 00:07:31;;;;;;;;;;;2.60;99.90;;;;;;5070559;28;20374;-82
2021/01/24 00:09:56;;;;;;;;;;;2.60;99.90;;;;;;5056977;28;19920;-82
2021/01/24 00:12:22;;;;;;;;;;;2.60;99.90;;;;;;5069137;28;20014;-82
2021/01/24 00:14:50;;;;;;;;;;;2.60;99.90;;;;;;5058903;28;19909;-81
2021/01/24 00:17:18;;;;;;;;;;;2.60;99.90;;;;;;5066364;28;19913;-81
2021/01/24 00:19:43;;;;;;;;;;;2.60;99.90;;;;;;5059093;28;19913;-81
2021/01/24 00:22:09;;;;;;;;;;;2.60;99.90;;;;;;5067240;28;20407;-82
2021/01/24 00:27:10;;;;;;;;;;;2.60;99.90;;;;;;5065126;22;19928;-82
2021/01/24 00:29:35;;;;;;;;;;;2.60;99.90;;;;;;5030034;28;19924;-80
2021/01/24 00:32:01;;;;;;;;;;;2.60;99.90;;;;;;5032594;28;19917;-82
2021/01/24 00:34:26;;;;;;;;;;;2.60;99.90;;;;;;5032237;28;19920;-81
2021/01/24 00:36:53;;;;;;;;;;;2.60;99.90;;;;;;5032416;28;20398;-82
2021/01/24 00:39:18;;;;;;;;;;;2.60;99.90;;;;;;5032225;28;20204;-81
2021/01/24 00:41:44;;;;;;;;;;;2.60;99.90;;;;;;5031399;28;19936;-81
2021/01/24 00:44:10;;;;;;;;;;;2.60;99.90;;;;;;5032750;28;19920;-81
2021/01/24 00:46:35;;;;;;;;;;;2.60;99.90;;;;;;5031795;28;20387;-81
2021/01/24 00:49:01;;;;;;;;;;;2.60;99.90;;;;;;5029328;28;19924;-82
2021/01/24 00:51:26;;;;;;;;;;;2.60;99.90;;;;;;5032097;28;19939;-82
2021/01/24 00:53:52;;;;;;;;;;;2.60;99.90;;;;;;5032155;28;19952;-81
2021/01/24 00:56:17;;;;;;;;;;;2.60;99.90;;;;;;5049911;28;19958;-82
2021/01/24 00:58:43;;;;;;;;;;;2.60;99.90;;;;;;5031745;28;19913;-81
2021/01/24 01:01:08;;;;;;;;;;;2.60;99.90;;;;;;5031544;28;19919;-82
2021/01/24 01:03:36;;;;;;;;;;;2.60;99.90;;;;;;5049258;28;19913;-81
2021/01/24 01:06:02;;;;;;;;;;;2.60;99.90;;;;;;5031710;28;19996;-82
2021/01/24 01:08:27;;;;;;;;;;;2.60;99.90;;;;;;5032078;28;20007;-82
2021/01/24 01:10:53;;;;;;;;;;;2.70;99.90;;;;;;5031050;28;20433;-78
2021/01/24 01:13:18;;;;;;;;;;;2.70;99.90;;;;;;5032037;28;19913;-80
2021/01/24 01:15:44;;;;;;;;;;;2.60;99.90;;;;;;5031467;28;19913;-80
2021/01/24 01:18:09;;;;;;;;;;;2.60;99.90;;;;;;5031458;28;19912;-81
2021/01/24 01:20:35;;;;;;;;;;;2.60;99.90;;;;;;5028456;28;19949;-81
2021/01/24 01:23:00;;;;;;;;;;;2.60;99.90;;;;;;5031886;28;19967;-81
2021/01/24 01:25:26;;;;;;;;;;;2.60;99.90;;;;;;5038482;28;20011;-81
2021/01/24 01:27:51;;;;;;;;;;;2.60;99.90;;;;;;5065899;28;19912;-82
2021/01/24 01:30:17;;;;;;;;;;;2.60;99.90;;;;;;5057197;28;19944;-81
2021/01/24 01:32:43;;;;;;;;;;;2.70;99.90;;;;;;5067744;28;20746;-80
2021/01/24 01:35:09;;;;;;;;;;;2.70;99.90;;;;;;5068066;28;19917;-81
2021/01/24 01:37:34;;;;;;;;;;;2.70;99.90;;;;;;5068121;28;20333;-81
2021/01/24 01:40:00;;;;;;;;;;;2.70;99.90;;;;;;5067403;28;19938;-80
2021/01/24 01:42:26;;;;;;;;;;;2.70;99.90;;;;;;5067640;28;19913;-81
2021/01/24 01:44:51;;;;;;;;;;;2.70;99.90;;;;;;5067621;28;19912;-82
2021/01/24 01:47:22;;;;;;;;;;;2.70;99.90;;;;;;5068160;28;19959;-80
2021/01/24 01:49:48;;;;;;;;;;;2.70;99.90;;;;;;5068050;28;19959;-81
2021/01/24 01:52:13;;;;;;;;;;;2.60;99.90;;;;;;5067747;28;19963;-81
2021/01/24 01:54:41;;;;;;;;;;;2.60;99.90;;;;;;5068125;28;19960;-83
2021/01/24 01:57:07;;;;;;;;;;;2.60;99.90;;;;;;5068001;28;19913;-81
2021/01/24 01:59:33;;;;;;;;;;;2.70;99.90;;;;;;5067950;28;19912;-80
2021/01/24 02:01:58;;;;;;;;;;;2.60;99.90;;;;;;5066991;28;19917;-81
2021/01/24 02:04:36;;;;;;;;;;;2.60;99.90;;;;;;5067756;28;19917;-82
2021/01/24 02:07:05;;;;;;;;;;;2.70;99.90;;;;;;5067744;28;19923;-82
2021/01/24 02:09:38;;;;;;;;;;;2.70;99.90;;;;;;5067660;28;19916;-81
2021/01/24 02:12:22;;;;;;;;;;;2.60;99.90;;;;;;5067470;28;19917;-80
2021/01/24 02:14:51;;;;;;;;;;;2.70;99.90;;;;;;5067333;28;19948;-80
2021/01/24 02:17:18;;;;;;;;;;;2.70;99.90;;;;;;5068098;28;19935;-80
2021/01/24 02:20:19;;;;;;;;;;;2.70;99.90;;;;;;5067141;28;20410;-80
2021/01/24 02:22:49;;;;;;;;;;;2.70;99.90;;;;;;4976097;28;19913;-82
2021/01/24 02:25:16;;;;;;;;;;;2.70;99.90;;;;;;5069393;28;20325;-80
2021/01/24 02:27:47;;;;;;;;;;;2.70;99.90;;;;;;5071130;28;19908;-81
2021/01/24 02:30:12;;;;;;;;;;;2.70;99.90;;;;;;5071514;28;19924;-84
2021/01/24 02:32:41;;;;;;;;;;;2.60;99.90;;;;;;5070976;28;20299;-81
2021/01/24 02:35:07;;;;;;;;;;;2.50;99.90;;;;;;5070745;28;19914;-83
2021/01/24 02:37:33;;;;;;;;;;;2.40;99.90;;;;;;5071332;28;20366;-81
2021/01/24 02:39:59;;;;;;;;;;;2.40;99.90;;;;;;5073672;28;20307;-80
2021/01/24 02:42:25;;;;;;;;;;;2.40;99.90;;;;;;5070577;28;20371;-82
2021/01/24 02:44:53;;;;;;;;;;;2.40;99.90;;;;;;5188839;22;19977;-85
2021/01/24 02:47:22;;;;;;;;;;;2.30;99.90;;;;;;5095194;28;20378;-85
2021/01/24 02:49:48;;;;;;;;;;;2.30;99.90;;;;;;5098901;28;19916;-86
2021/01/24 02:52:14;;;;;;;;;;;2.30;99.90;;;;;;5113464;28;19968;-85
2021/01/24 02:54:40;;;;;;;;;;;2.20;99.90;;;;;;5081474;28;20014;-85
2021/01/24 02:57:06;;;;;;;;;;;2.20;99.90;;;;;;5094880;28;19975;-86
2021/01/24 02:59:33;;;;;;;;;;;2.20;99.90;;;;;;5095116;28;19912;-85
2021/01/24 03:01:59;;;;;;;;;;;2.20;99.90;;;;;;5080248;28;19912;-85
2021/01/24 03:04:24;;;;;;;;;;;2.10;99.90;;;;;;5094965;28;19916;-85
2021/01/24 03:06:50;;;;;;;;;;;2.10;99.90;;;;;;5095058;28;19969;-85
2021/01/24 03:09:18;;;;;;;;;;;2.10;99.90;;;;;;5088177;28;19955;-85
2021/01/24 03:11:47;;;;;;;;;;;2.10;99.90;;;;;;5088452;28;19915;-85
2021/01/24 03:14:21;;;;;;;;;;;2.10;99.90;;;;;;5112965;28;19916;-85
2021/01/24 03:16:50;;;;;;;;;;;2.10;99.90;;;;;;5094737;28;19995;-86
2021/01/24 03:19:21;;;;;;;;;;;2.00;99.90;;;;;;5094512;28;19912;-85
2021/01/24 03:21:47;;;;;;;;;;;2.00;99.90;;;;;;5092282;28;20278;-84
2021/01/24 03:24:16;;;;;;;;;;;2.00;99.90;;;;;;5093785;28;19919;-84
2021/01/24 03:26:43;;;;;;;;;;;1.90;99.90;;;;;;5093997;28;20160;-85
2021/01/24 03:29:08;;;;;;;;;;;1.90;99.90;;;;;;5067792;28;20299;-85
2021/01/24 03:31:34;;;;;;;;;;;1.90;99.90;;;;;;5169598;22;19924;-87
2021/01/24 03:34:07;;;;;;;;;;;1.90;99.90;;;;;;5054632;28;20352;-86
2021/01/24 03:36:32;;;;;;;;;;;1.90;99.90;;;;;;5054340;28;20001;-88
2021/01/24 03:38:58;;;;;;;;;;;2.00;99.90;;;;;;5054442;28;19948;-87
2021/01/24 03:41:23;;;;;;;;;;;1.90;99.90;;;;;;5053637;28;20336;-86
2021/01/24 03:43:49;;;;;;;;;;;1.90;99.90;;;;;;5054624;28;19999;-87
2021/01/24 03:46:15;;;;;;;;;;;1.90;99.90;;;;;;5054336;28;19917;-86
2021/01/24 03:48:40;;;;;;;;;;;1.90;99.90;;;;;;5054361;28;19913;-86
2021/01/24 03:51:06;;;;;;;;;;;1.90;99.90;;;;;;5054392;28;20282;-88
2021/01/24 03:53:31;;;;;;;;;;;1.90;99.90;;;;;;5054001;28;19935;-88
2021/01/24 03:56:11;;;;;;;;;;;1.80;99.90;;;;;;5044163;28;19992;-86
2021/01/24 03:58:37;;;;;;;;;;;1.80;99.90;;;;;;5039736;28;19916;-87
2021/01/24 04:01:02;;;;;;;;;;;1.90;99.90;;;;;;5053948;28;19909;-86
2021/01/24 04:03:28;;;;;;;;;;;1.90;99.90;;;;;;5053017;28;19916;-88
2021/01/24 04:05:53;;;;;;;;;;;1.80;99.90;;;;;;5053222;28;19920;-86
2021/01/24 04:08:19;;;;;;;;;;;1.90;99.90;;;;;;5040101;28;20024;-88
2021/01/24 04:10:46;;;;;;;;;;;1.90;99.90;;;;;;5038856;28;22551;-88
2021/01/24 04:13:11;;;;;;;;;;;1.90;99.90;;;;;;5054785;28;19912;-87
2021/01/24 04:15:37;;;;;;;;;;;1.90;99.90;;;;;;5049448;28;19912;-89
2021/01/24 04:18:02;;;;;;;;;;;1.90;99.90;;;;;;5034880;28;19913;-88
2021/01/24 04:20:28;;;;;;;;;;;1.80;99.90;;;;;;5049692;28;19999;-88
2021/01/24 04:22:53;;;;;;;;;;;1.80;99.90;;;;;;5053641;28;19913;-88
2021/01/24 04:25:19;;;;;;;;;;;1.70;99.90;;;;;;5054033;28;20355;-86
2021/01/24 04:27:45;;;;;;;;;;;1.70;99.90;;;;;;5053944;28;19913;-87
2021/01/24 04:30:11;;;;;;;;;;;1.70;99.90;;;;;;5053746;28;19935;-87
2021/01/24 04:32:36;;;;;;;;;;;1.60;99.90;;;;;;5035934;28;19913;-88
2021/01/24 04:35:02;;;;;;;;;;;1.60;99.90;;;;;;5035542;28;20351;-88
2021/01/24 04:37:31;;;;;;;;;;;1.60;99.90;;;;;;5036153;28;19909;-90
2021/01/24 04:39:57;;;;;;;;;;;1.60;99.90;;;;;;5035635;28;19912;-89
2021/01/24 04:42:25;;;;;;;;;;;1.60;99.90;;;;;;5036227;28;19915;-88
2021/01/24 04:44:51;;;;;;;;;;;1.60;99.90;;;;;;5036103;28;19909;-87
2021/01/24 04:47:17;;;;;;;;;;;1.60;99.90;;;;;;5034402;28;20343;-86
2021/01/24 04:49:43;;;;;;;;;;;1.60;99.90;;;;;;5035981;28;19913;-89
2021/01/24 04:52:08;;;;;;;;;;;1.60;99.90;;;;;;5034966;28;19920;-89
2021/01/24 04:54:34;;;;;;;;;;;1.60;99.90;;;;;;5035498;28;20066;-85
2021/01/24 04:57:00;;;;;;;;;;;1.50;99.90;;;;;;5034788;28;19913;-88
2021/01/24 04:59:26;;;;;;;;;;;1.50;99.90;;;;;;5034206;28;19917;-88
2021/01/24 05:01:51;;;;;;;;;;;1.50;99.90;;;;;;5033507;28;19963;-89
2021/01/24 05:04:17;;;;;;;;;;;1.50;99.90;;;;;;5033904;28;19917;-89
2021/01/24 05:06:43;;;;;;;;;;;1.50;99.90;;;;;;5034378;28;19913;-88
2021/01/24 05:09:12;;;;;;;;;;;1.50;99.90;;;;;;5034092;28;19960;-88
2021/01/24 05:11:40;;;;;;;;;;;1.50;99.90;;;;;;5038069;28;19924;-88
2021/01/24 05:14:14;;;;;;;;;;;1.50;99.90;;;;;;5051517;28;19920;-87
2021/01/24 05:16:41;;;;;;;;;;;1.50;99.90;;;;;;5033644;28;20352;-89
2021/01/24 05:19:07;;;;;;;;;;;1.50;99.90;;;;;;5034219;28;19970;-88
2021/01/24 05:21:34;;;;;;;;;;;1.40;99.90;;;;;;5032646;28;20398;-89
2021/01/24 05:24:00;;;;;;;;;;;1.50;99.90;;;;;;5032682;28;19912;-88
2021/01/24 05:26:25;;;;;;;;;;;1.50;99.90;;;;;;5033343;28;19917;-86
2021/01/24 05:28:51;;;;;;;;;;;1.40;99.90;;;;;;5032722;28;19917;-90
2021/01/24 05:31:20;;;;;;;;;;;1.50;99.90;;;;;;5040387;28;20279;-90
2021/01/24 05:33:46;;;;;;;;;;;1.50;99.90;;;;;;5048666;28;19913;-91
2021/01/24 05:36:17;;;;;;;;;;;1.40;99.90;;;;;;5048811;28;19919;-90
2021/01/24 05:38:42;;;;;;;;;;;1.40;99.90;;;;;;5048718;28;19913;-87
2021/01/24 05:41:13;;;;;;;;;;;1.30;99.90;;;;;;5049079;28;20287;-90
2021/01/24 05:43:42;;;;;;;;;;;1.30;99.90;;;;;;5048407;28;19913;-90
2021/01/24 05:46:11;;;;;;;;;;;1.20;99.90;;;;;;5048833;28;19913;-89
2021/01/24 05:48:46;;;;;;;;;;;1.20;99.90;;;;;;5048503;28;19920;-90
2021/01/24 05:51:14;;;;;;;;;;;1.20;99.90;;;;;;5048643;28;20498;-88
2021/01/24 05:53:43;;;;;;;;;;;1.10;99.90;;;;;;5048243;28;19912;-89
2021/01/24 05:56:12;;;;;;;;;;;1.10;99.90;;;;;;5050138;28;20004;-89
2021/01/24 05:58:39;;;;;;;;;;;1.10;99.90;;;;;;5053660;28;19995;-86
2021/01/24 06:01:07;;;;;;;;;;;1.00;99.90;;;;;;5052940;28;19919;-88
2021/01/24 06:03:36;;;;;;;;;;;1.10;99.90;;;;;;5052512;28;19913;-87
2021/01/24 06:06:01;;;;;;;;;;;1.00;99.90;;;;;;5052540;28;19909;-90
2021/01/24 06:08:29;;;;;;;;;;;1.00;99.90;;;;;;5052191;28;19920;-92
2021/01/24 06:10:54;;;;;;;;;;;1.00;99.90;;;;;;5053059;28;19913;-87
2021/01/24 06:13:23;;;;;;;;;;;1.00;99.90;;;;;;5052950;28;19920;-89
2021/01/24 06:15:50;;;;;;;;;;;1.00;99.90;;;;;;5052380;28;19913;-89
2021/01/24 06:18:18;;;;;;;;;;;1.10;99.90;;;;;;5052607;28;20073;-89
2021/01/24 06:20:57;;;;;;;;;;;1.00;99.90;;;;;;5051760;28;19913;-89
2021/01/24 06:23:58;;;;;;;;;;;1.00;99.90;;;;;;5051454;28;19919;-89
2021/01/24 06:26:25;;;;;;;;;;;1.00;99.90;;;;;;5009432;28;19972;-89
2021/01/24 06:28:57;;;;;;;;;;;0.90;99.90;;;;;;5050771;28;19921;-90
2021/01/24 06:31:22;;;;;;;;;;;0.80;99.90;;;;;;5050358;28;19924;-91
2021/01/24 06:33:52;;;;;;;;;;;0.80;99.90;;;;;;5051849;28;19912;-90
2021/01/24 06:36:18;;;;;;;;;;;0.80;99.90;;;;;;5049756;28;20006;-89
2021/01/24 06:38:44;;;;;;;;;;;0.80;99.90;;;;;;5054944;28;19959;-89
2021/01/24 06:41:13;;;;;;;;;;;0.80;99.90;;;;;;5054212;28;19920;-89
2021/01/24 06:43:40;;;;;;;;;;;0.80;99.90;;;;;;5054475;28;19962;-89
2021/01/24 06:46:26;;;;;;;;;;;0.80;99.90;;;;;;5054674;28;19916;-88
2021/01/24 06:48:53;;;;;;;;;;;0.80;99.90;;;;;;5053828;28;20338;-89
2021/01/24 06:51:52;;;;;;;;;;;0.80;99.90;;;;;;5055547;28;20252;-90
2021/01/24 06:54:20;;;;;;;;;;;0.80;99.90;;;;;;5065488;28;19917;-89
2021/01/24 06:56:46;;;;;;;;;;;0.70;99.90;;;;;;5054189;28;19920;-91
2021/01/24 06:59:32;;;;;;;;;;;0.70;99.90;;;;;;5049421;28;20234;-88
2021/01/24 07:02:16;;;;;;;;;;;0.80;99.90;;;;;;5050531;28;19917;-90
2021/01/24 07:04:42;;;;;;;;;;;0.70;99.90;;;;;;5053320;28;19912;-89
2021/01/24 07:07:13;;;;;;;;;;;0.80;99.90;;;;;;5053238;28;20298;-89
2021/01/24 07:09:39;;;;;;;;;;;0.80;99.90;;;;;;5071240;28;19966;-89
2021/01/24 07:12:05;;;;;;;;;;;0.80;99.90;;;;;;5051664;28;20433;-89
2021/01/24 07:14:36;;;;;;;;;;;0.70;99.90;;;;;;5052423;28;20089;-88
2021/01/24 07:17:09;;;;;;;;;;;0.80;99.90;;;;;;5050727;28;19943;-88
2021/01/24 07:19:34;;;;;;;;;;;0.80;99.90;;;;;;5043366;28;20047;-89
2021/01/24 07:22:00;;;;;;;;;;;0.90;99.90;;;;;;5067669;28;20003;-90
2021/01/24 07:24:29;;;;;;;;;;;0.80;99.90;;;;;;5047923;28;19927;-89
2021/01/24 07:26:55;;;;;;;;;;;0.90;99.90;;;;;;5050645;28;19916;-87
2021/01/24 07:29:26;;;;;;;;;;;0.90;99.90;;;;;;5053985;28;19920;-88
2021/01/24 07:31:52;;;;;;;;;;;0.90;99.90;;;;;;5048914;28;20031;-90
2021/01/24 07:34:21;;;;;;;;;;;1.00;99.90;;;;;;5033150;28;20031;-89
2021/01/24 07:36:50;;;;;;;;;;;1.00;99.90;;;;;;5028706;28;20346;-88
2021/01/24 07:39:15;;;;;;;;;;;1.00;99.90;;;;;;5033481;28;19924;-90
2021/01/24 07:41:41;;;;;;;;;;;1.00;99.90;;;;;;5033262;28;19912;-90
2021/01/24 07:44:09;;;;;;;;;;;1.10;99.90;;;;;;5033197;28;19912;-89
2021/01/24 07:46:35;;;;;;;;;;;1.10;99.90;;;;;;5046906;28;19924;-89
2021/01/24 07:49:01;;;;;;;;;;;1.10;99.90;;;;;;5032980;28;19921;-90
2021/01/24 07:51:26;;;;;;;;;;;1.10;99.90;;;;;;5033951;28;19946;-89
2021/01/24 07:53:53;;;;;;;;;;;1.10;99.90;;;;;;5033077;28;19917;-88
2021/01/24 07:56:21;;;;;;;;;;;1.10;99.90;;;;;;5030975;28;19912;-89
2021/01/24 07:58:47;;;;;;;;;;;1.20;99.90;;;;;;5033237;28;20009;-90
2021/01/24 08:01:15;;;;;;;;;;;1.20;99.90;;;;;;5033003;28;20249;-90
2021/01/24 08:03:44;;;;;;;;;;;1.20;99.90;;;;;;5031805;28;20311;-89
2021/01/24 08:06:12;;;;;;;;;;;1.20;99.90;;;;;;5032160;28;19919;-89
2021/01/24 08:08:45;;;;;;;;;;;1.20;99.90;;;;;;5032598;28;19921;-87
2021/01/24 08:11:11;;;;;;;;;;;1.20;99.90;;;;;;5033313;28;19912;-88
2021/01/24 08:13:38;;;;;;;;;;;1.20;99.90;;;;;;5048026;28;20340;-89
2021/01/24 08:16:12;;;;;;;;;;;1.20;99.90;;;;;;5032690;28;19924;-90
2021/01/24 08:18:39;;;;;;;;;;;1.10;99.90;;;;;;5032885;28;19917;-91
2021/01/24 08:21:08;;;;;;;;;;;1.10;99.90;;;;;;5032149;28;19917;-88
2021/01/24 08:23:36;;;;;;;;;;;1.20;99.90;;;;;;5031876;28;20003;-90
2021/01/24 08:26:02;;;;;;;;;;;1.20;99.90;;;;;;5031667;28;19956;-91
2021/01/24 08:28:29;;;;;;;;;;;1.30;99.90;;;;;;5031969;28;19920;-92
2021/01/24 08:30:58;;;;;;;;;;;1.40;99.90;;;;;;5031960;28;20355;-90
2021/01/24 08:33:24;;;;;;;;;;;1.40;99.90;;;;;;5041984;28;19991;-91
2021/01/24 08:35:49;;;;;;;;;;;1.60;99.90;;;;;;5047967;28;20008;-90
2021/01/24 08:38:15;;;;;;;;;;;1.60;99.80;;;;;;5033383;28;19947;-89
2021/01/24 08:40:43;;;;;;;;;;;1.60;99.90;;;;;;5048881;28;20015;-91
2021/01/24 08:43:08;;;;;;;;;;;1.70;99.90;;;;;;5048064;28;20058;-88
2021/01/24 08:45:37;;;;;;;;;;;1.70;99.50;;;;;;5031435;28;19935;-91
2021/01/24 08:48:04;;;;;;;;;;;1.70;99.90;;;;;;5046298;28;19908;-92
2021/01/24 08:50:36;;;;;;;;;;;1.70;99.20;;;;;;5032678;28;19921;-90
2021/01/24 08:53:05;;;;;;;;;;;1.70;99.40;;;;;;5047100;28;19917;-90
2021/01/24 08:55:44;;;;;;;;;;;1.70;99.90;;;;;;5031844;28;20284;-91
2021/01/24 08:58:23;;;;;;;;;;;1.70;99.90;;;;;;5043553;28;20387;-89
2021/01/24 09:01:00;;;;;;;;;;;1.70;99.90;;;;;;5033657;28;20340;-90
2021/01/24 09:03:27;;;;;;;;;;;1.80;99.90;;;;;;5033319;28;19908;-90
2021/01/24 09:05:52;;;;;;;;;;;1.70;99.90;;;;;;5045915;28;19913;-91
2021/01/24 09:08:27;;;;;;;;;;;1.70;99.90;;;;;;5046061;28;19916;-90
2021/01/24 09:10:55;;;;;;;;;;;1.70;99.90;;;;;;5029490;28;19913;-90
2021/01/24 09:13:23;;;;;;;;;;;1.80;99.90;;;;;;5034213;28;19909;-89
2021/01/24 09:15:48;;;;;;;;;;;1.70;99.90;;;;;;5051129;28;19912;-90
2021/01/24 09:18:14;;;;;;;;;;;1.70;99.90;;;;;;5033115;28;19920;-89
2021/01/24 09:20:42;;;;;;;;;;;1.70;99.90;;;;;;5034268;28;19952;-88
2021/01/24 09:23:08;;;;;;;;;;;1.70;99.90;;;;;;5049452;28;19913;-89
2021/01/24 09:25:34;;;;;;;;;;;1.70;99.90;;;;;;5048969;28;19909;-88
2021/01/24 09:28:00;;;;;;;;;;;1.70;99.90;;;;;;5047901;28;19962;-90
2021/01/24 09:30:26;;;;;;;;;;;1.70;99.90;;;;;;5053081;28;19964;-90
2021/01/24 09:32:51;;;;;;;;;;;1.70;99.90;;;;;;5058781;28;20304;-89
2021/01/24 09:35:17;;;;;;;;;;;1.80;99.90;;;;;;5059663;28;19915;-88
2021/01/24 09:37:43;;;;;;;;;;;1.80;99.90;;;;;;5054343;28;19913;-88
2021/01/24 09:40:09;;;;;;;;;;;1.80;99.90;;;;;;5059107;28;19909;-88
2021/01/24 09:42:37;;;;;;;;;;;1.80;99.90;;;;;;5058102;28;19912;-88
2021/01/24 09:45:03;;;;;;;;;;;1.80;99.90;;;;;;5058319;28;20377;-88
2021/01/24 09:47:31;;;;;;;;;;;1.80;99.90;;;;;;5058688;28;19955;-87
2021/01/24 09:49:59;;;;;;;;;;;1.80;99.90;;;;;;5058545;28;20393;-86
2021/01/24 09:52:25;;;;;;;;;;;1.70;99.90;;;;;;5058623;28;19921;-88
2021/01/24 09:54:51;;;;;;;;;;;1.70;99.90;;;;;;5056169;28;19916;-88
2021/01/24 09:57:22;;;;;;;;;;;1.70;99.90;;;;;;5059221;28;19909;-89
2021/01/24 10:02:24;;;;;;;;;;;1.80;99.90;;;;;;5085821;28;20190;-85
2021/01/24 10:04:59;;;;;;;;;;;1.80;99.90;;;;;;5089431;28;19916;-85
2021/01/24 10:07:30;;;;;;;;;;;1.80;99.90;;;;;;5079262;28;19957;-85
2021/01/24 10:10:03;;;;;;;;;;;1.90;99.90;;;;;;5078286;28;19927;-85
2021/01/24 10:12:31;;;;;;;;;;;1.90;99.90;;;;;;5078112;28;20374;-83
2021/01/24 10:14:59;;;;;;;;;;;1.90;99.90;;;;;;5076271;28;20458;-85
2021/01/24 10:17:25;;;;;;;;;;;2.00;99.90;;;;;;5095895;28;20442;-85
2021/01/24 10:19:50;;;;;;;;;;;2.00;99.90;;;;;;5076662;28;19920;-84
2021/01/24 10:22:16;;;;;;;;;;;2.10;99.90;;;;;;5095949;28;19935;-85
2021/01/24 10:24:44;;;;;;;;;;;2.10;99.90;;;;;;5077965;28;19912;-84
2021/01/24 10:27:09;;;;;;;;;;;2.10;99.90;;;;;;5069575;28;20492;-84
2021/01/24 10:29:35;;;;;;;;;;;2.10;99.90;;;;;;5077724;28;19999;-84
2021/01/24 10:32:03;;;;;;;;;;;2.10;99.90;;;;;;5078728;28;19923;-85
2021/01/24 10:34:28;;;;;;;;;;;2.10;99.90;;;;;;5074752;28;19913;-85
2021/01/24 10:36:54;;;;;;;;;;;2.20;99.90;;;;;;5077577;28;19965;-85
2021/01/24 10:39:20;;;;;;;;;;;2.20;99.90;;;;;;5076585;28;19916;-85
2021/01/24 10:41:46;;;;;;;;;;;2.30;99.90;;;;;;5077150;28;19991;-85
2021/01/24 10:44:11;;;;;;;;;;;2.30;99.90;;;;;;5073186;28;20418;-84
2021/01/24 10:46:37;;;;;;;;;;;2.30;99.90;;;;;;5061755;28;19927;-83
2021/01/24 10:49:03;;;;;;;;;;;2.40;99.90;;;;;;5073879;28;19938;-84
2021/01/24 10:51:28;;;;;;;;;;;2.50;99.90;;;;;;5074853;28;20355;-85
2021/01/24 10:53:56;;;;;;;;;;;2.50;99.90;;;;;;5074319;28;19923;-84
2021/01/24 10:56:22;;;;;;;;;;;2.60;99.90;;;;;;5074165;28;19912;-85
2021/01/24 10:58:47;;;;;;;;;;;2.60;99.90;;;;;;5073709;28;19916;-85
2021/01/24 11:01:15;;;;;;;;;;;2.70;99.80;;;;;;5080720;28;19924;-82
2021/01/24 11:03:43;;;;;;;;;;;2.70;99.90;;;;;;5070968;28;19959;-82
2021/01/24 11:06:09;;;;;;;;;;;2.70;98.80;;;;;;5075294;28;19920;-82
2021/01/24 11:08:34;;;;;;;;;;;2.80;98.00;;;;;;5076048;28;19916;-82
2021/01/24 11:11:02;;;;;;;;;;;2.80;96.50;;;;;;5092140;28;20331;-82
2021/01/24 11:13:28;;;;;;;;;;;2.90;96.20;;;;;;5073968;28;19920;-82
2021/01/24 11:15:53;;;;;;;;;;;2.90;96.30;;;;;;5074142;28;19912;-83
2021/01/24 11:18:19;;;;;;;;;;;2.90;95.80;;;;;;5070444;28;19962;-81
2021/01/24 11:20:44;;;;;;;;;;;3.00;97.70;;;;;;5067900;28;19916;-82
2021/01/24 11:23:11;;;;;;;;;;;3.00;95.00;;;;;;5067112;28;20291;-82
2021/01/24 11:25:37;;;;;;;;;;;3.10;94.70;;;;;;5084557;28;20377;-82
2021/01/24 11:28:06;;;;;;;;;;;3.10;95.00;;;;;;5069922;28;20007;-83
2021/01/24 11:30:31;;;;;;;;;;;3.10;94.80;;;;;;5073551;28;19916;-82
2021/01/24 11:32:57;;;;;;;;;;;3.10;93.80;;;;;;5073524;28;20414;-82
2021/01/24 11:35:24;;;;;;;;;;;3.10;94.00;;;;;;5073371;28;19918;-82
2021/01/24 11:37:49;;;;;;;;;;;3.10;94.50;;;;;;5073585;28;19957;-82
2021/01/24 11:40:15;;;;;;;;;;;3.10;93.40;;;;;;5073022;28;19911;-81
2021/01/24 11:42:41;;;;;;;;;;;3.10;93.50;;;;;;5073284;28;20351;-82
2021/01/24 11:45:09;;;;;;;;;;;3.10;93.70;;;;;;5073225;28;19927;-82
2021/01/24 11:47:35;;;;;;;;;;;3.10;93.30;;;;;;5073065;28;19915;-84
2021/01/24 11:50:01;;;;;;;;;;;3.10;94.00;;;;;;5056169;28;19916;-85
2021/01/24 11:52:26;;;;;;;;;;;3.10;93.90;;;;;;5073841;28;19920;-84
2021/01/24 11:54:52;;;;;;;;;;;3.10;94.40;;;;;;5068759;28;20007;-82
2021/01/24 11:57:17;;;;;;;;;;;3.10;95.30;;;;;;5073042;28;19912;-82
2021/01/24 11:59:46;;;;;;;;;;;3.10;94.90;;;;;;5072684;28;19912;-82
2021/01/24 12:02:11;;;;;;;;;;;3.20;94.40;;;;;;5072554;28;19924;-82
2021/01/24 12:04:39;;;;;;;;;;;3.20;94.30;;;;;;5073234;28;19916;-84
2021/01/24 12:07:05;;;;;;;;;;;3.10;93.90;;;;;;5072896;28;19908;-85
2021/01/24 12:09:30;;;;;;;;;;;3.10;94.50;;;;;;5069392;28;19917;-82
2021/01/24 12:11:58;;;;;;;;;;;3.10;94.70;;;;;;5071563;28;19912;-84
2021/01/24 12:14:27;;;;;;;;;;;3.10;94.20;;;;;;5073185;28;19920;-82
2021/01/24 12:16:52;;;;;;;;;;;3.20;95.50;;;;;;5069847;28;19916;-82
2021/01/24 12:19:21;;;;;;;;;;;3.10;94.00;;;;;;5171506;22;19925;-82
2021/01/24 12:21:46;;;;;;;;;;;3.10;94.00;;;;;;5036003;28;20367;-82
2021/01/24 12:24:12;;;;;;;;;;;3.10;95.10;;;;;;5049571;28;19997;-83
2021/01/24 12:26:38;;;;;;;;;;;3.20;94.60;;;;;;5049611;28;20327;-82
2021/01/24 12:29:07;;;;;;;;;;;3.30;94.50;;;;;;5048616;28;19921;-82
2021/01/24 12:31:32;;;;;;;;;;;3.20;93.30;;;;;;5049907;28;19916;-82
2021/01/24 12:33:58;;;;;;;;;;;3.30;95.80;;;;;;5049541;28;19916;-82
2021/01/24 12:36:24;;;;;;;;;;;3.30;96.10;;;;;;5040840;28;20360;-82
2021/01/24 12:38:49;;;;;;;;;;;3.30;93.50;;;;;;5048904;28;20047;-82
2021/01/24 12:41:15;;;;;;;;;;;3.30;93.60;;;;;;5045023;28;20027;-83
2021/01/24 12:43:41;;;;;;;;;;;3.30;93.60;;;;;;5045577;28;19916;-82
2021/01/24 12:46:07;;;;;;;;;;;3.30;94.10;;;;;;5048919;28;20275;-82
2021/01/24 12:48:35;;;;;;;;;;;3.30;92.50;;;;;;5047979;28;19920;-82
2021/01/24 12:51:00;;;;;;;;;;;3.20;93.30;;;;;;5041829;28;20351;-82
2021/01/24 12:53:26;;;;;;;;;;;3.20;92.90;;;;;;5042351;28;19948;-83
2021/01/24 12:55:54;;;;;;;;;;;3.20;92.20;;;;;;5049261;28;20406;-83
2021/01/24 12:58:19;;;;;;;;;;;3.10;91.80;;;;;;5049418;28;19913;-81
2021/01/24 13:00:45;;;;;;;;;;;3.10;92.00;;;;;;5048977;28;19913;-82
2021/01/24 13:03:13;;;;;;;;;;;3.10;91.20;;;;;;5048518;28;19917;-83
2021/01/24 13:05:39;;;;;;;;;;;3.00;91.10;;;;;;5048453;28;19912;-82
2021/01/24 13:08:05;;;;;;;;;;;2.90;91.60;;;;;;5041478;28;19913;-82
2021/01/24 13:10:32;;;;;;;;;;;2.80;92.00;;;;;;5041296;28;20332;-82
2021/01/24 13:12:58;;;;;;;;;;;2.80;92.40;;;;;;5048517;28;20319;-83
2021/01/24 13:15:24;;;;;;;;;;;2.80;94.20;;;;;;5049294;28;19924;-82
2021/01/24 13:17:53;;;;;;;;;;;2.80;94.50;;;;;;5048370;28;19917;-82
2021/01/24 13:20:19;;;;;;;;;;;2.70;93.50;;;;;;5034122;28;20400;-82
2021/01/24 13:22:46;;;;;;;;;;;2.70;94.00;;;;;;5032088;28;19913;-82
2021/01/24 13:25:13;;;;;;;;;;;2.70;94.20;;;;;;5031639;28;20058;-82
2021/01/24 13:27:38;;;;;;;;;;;2.70;94.30;;;;;;5031673;28;20386;-82
2021/01/24 13:30:09;;;;;;;;;;;2.70;92.90;;;;;;5031607;28;19916;-82
2021/01/24 13:32:35;;;;;;;;;;;2.60;92.40;;;;;;5032070;28;20376;-82
2021/01/24 13:35:01;;;;;;;;;;;2.60;92.00;;;;;;5032297;28;20114;-82
2021/01/24 13:37:29;;;;;;;;;;;2.60;92.20;;;;;;5032206;28;20031;-82
2021/01/24 13:39:54;;;;;;;;;;;2.60;92.50;;;;;;5049622;28;20332;-82
2021/01/24 13:42:20;;;;;;;;;;;2.60;92.30;;;;;;5031998;28;20320;-82
2021/01/24 13:44:46;;;;;;;;;;;2.70;92.10;;;;;;5049807;28;19913;-82
2021/01/24 13:47:13;;;;;;;;;;;2.70;91.60;;;;;;5031704;28;19917;-82
2021/01/24 13:49:41;;;;;;;;;;;2.80;91.80;;;;;;5049217;28;20015;-82
2021/01/24 13:52:07;;;;;;;;;;;2.80;90.90;;;;;;5031588;28;19932;-82
2021/01/24 13:54:32;;;;;;;;;;;2.80;91.00;;;;;;5031935;28;19913;-82
2021/01/24 13:56:58;;;;;;;;;;;2.80;93.60;;;;;;5031446;28;19976;-82
2021/01/24 13:59:26;;;;;;;;;;;2.90;90.90;;;;;;5031534;28;19920;-82
2021/01/24 14:01:54;;;;;;;;;;;2.90;91.80;;;;;;5030862;28;20310;-82
2021/01/24 14:04:20;;;;;;;;;;;3.00;91.20;;;;;;5027473;28;19913;-82
2021/01/24 14:06:48;;;;;;;;;;;2.90;92.30;;;;;;5030989;28;19920;-82
2021/01/24 14:09:13;;;;;;;;;;;2.90;91.50;;;;;;5030325;28;19921;-82
2021/01/24 14:11:39;;;;;;;;;;;2.90;89.30;;;;;;5031245;28;19966;-82
2021/01/24 14:14:09;;;;;;;;;;;2.80;89.60;;;;;;5031368;28;19912;-82
2021/01/24 14:16:37;;;;;;;;;;;2.80;90.50;;;;;;5031414;28;20030;-82
2021/01/24 14:19:03;;;;;;;;;;;2.80;91.20;;;;;;5041170;28;19928;-82
2021/01/24 14:21:28;;;;;;;;;;;2.70;90.10;;;;;;5052464;28;19912;-82
2021/01/24 14:23:56;;;;;;;;;;;2.80;91.30;;;;;;5052126;28;19913;-82
2021/01/24 14:26:22;;;;;;;;;;;2.70;91.00;;;;;;5054605;28;19912;-83
2021/01/24 14:28:47;;;;;;;;;;;2.70;90.50;;;;;;5050609;28;19920;-82
2021/01/24 14:31:13;;;;;;;;;;;2.70;90.80;;;;;;5070966;28;19999;-82
2021/01/24 14:33:39;;;;;;;;;;;2.70;92.50;;;;;;5053135;28;19916;-82
2021/01/24 14:36:05;;;;;;;;;;;2.70;90.40;;;;;;5054784;28;19912;-82